This is the latest recevied weather packets stored in our database for station/object KB9VKQ-13. If no packets are shown the sender has not sent any weather packets the latest 1 day(s).
| Time | Temp. | Humidity | Pressure | Rain* | Wind** | Luminosity | Snow |
|---|---|---|---|---|---|---|---|
| 1777996210 | 13.33° C | - | 0 hPa | 0 mm | 2.68 m/s, 8° | - | - |
| 1777995580 | 12.78° C | - | 0 hPa | 0.25 mm | 4.47 m/s, 91° | - | - |
| 1777994950 | 12.78° C | - | 0 hPa | 1.27 mm | 3.13 m/s, 58° | - | - |
| 1777994320 | 11.67° C | - | 0 hPa | 3.3 mm | 2.24 m/s, 70° | - | - |
| 1777993720 | 10.56° C | - | 0 hPa | 4.32 mm | 4.02 m/s, 83° | - | - |
| 1777993090 | 10.56° C | - | 0 hPa | 4.32 mm | 4.02 m/s, 52° | - | - |
| 1777992460 | 10° C | - | 0 hPa | 4.06 mm | 1.79 m/s, 38° | - | - |
| 1777991830 | 9.44° C | - | 0 hPa | 3.81 mm | 2.68 m/s, 63° | - | - |
| 1777991200 | 9.44° C | - | 0 hPa | 2.54 mm | 1.79 m/s, 359° | - | - |
| 1777990600 | 10° C | - | 0 hPa | 0.76 mm | 1.34 m/s, 17° | - | - |
| 1777989970 | 10° C | - | 0 hPa | 0.25 mm | 2.24 m/s, 6° | - | - |
| 1777989340 | 10.56° C | - | 0 hPa | 0.51 mm | 4.47 m/s, 4° | - | - |
| 1777988740 | 10.56° C | - | 0 hPa | 1.02 mm | 3.58 m/s, 15° | - | - |
| 1777988110 | 11.11° C | - | 0 hPa | 1.27 mm | 2.24 m/s, 15° | - | - |
| 1777987510 | 11.11° C | - | 0 hPa | 1.27 mm | 2.68 m/s, 342° | - | - |
| 1777986910 | 11.11° C | - | 0 hPa | 1.27 mm | 2.24 m/s, 359° | - | - |
| 1777986280 | 11.11° C | - | 0 hPa | 1.02 mm | 2.24 m/s, 339° | - | - |
| 1777985680 | 11.11° C | - | 0 hPa | 0.76 mm | 1.34 m/s, 353° | - | - |
| 1777985050 | 11.67° C | - | 0 hPa | 0.51 mm | 1.34 m/s, 14° | - | - |
| 1777984420 | 11.67° C | - | 0 hPa | 0.51 mm | 1.34 m/s, 24° | - | - |
| 1777983820 | 11.67° C | - | 0 hPa | 0.51 mm | 1.34 m/s, 44° | - | - |
| 1777983220 | 11.67° C | - | 0 hPa | 0.51 mm | 2.24 m/s, 46° | - | - |
| 1777982590 | 11.67° C | - | 0 hPa | 0.51 mm | 1.79 m/s, 55° | - | - |
| 1777981990 | 11.67° C | - | 0 hPa | 0.51 mm | 1.79 m/s, 32° | - | - |
| 1777981360 | 12.22° C | - | 0 hPa | 0 mm | 2.68 m/s, 352° | - | - |
* Rain latest hour (hover to see other rain measurements)
** Current wind speed in m/s (hover to see current wind gust speed)